createdAt,value
2018-09-04T00:01:39.726Z,5.60
2018-09-04T00:04:09.008Z,6.63
2018-09-04T00:06:38.151Z,6.97
2018-09-04T00:09:07.101Z,6.60
2018-09-04T00:11:36.307Z,5.63
2018-09-04T00:14:05.415Z,5.30
2018-09-04T00:16:34.308Z,5.83
2018-09-04T00:19:03.428Z,6.90
2018-09-04T00:21:32.316Z,6.50
2018-09-04T00:24:01.675Z,5.27
2018-09-04T00:26:30.697Z,5.07
2018-09-04T00:28:59.702Z,5.40
2018-09-04T00:31:28.899Z,7.07
2018-09-04T00:33:57.999Z,6.47
2018-09-04T00:36:27.716Z,5.30
2018-09-04T00:38:56.634Z,5.70
2018-09-04T00:41:25.602Z,6.47
2018-09-04T00:43:54.955Z,7.57
2018-09-04T00:46:23.648Z,6.40
2018-09-04T00:48:52.631Z,6.27
2018-09-04T00:51:21.343Z,6.77
2018-09-04T00:53:50.385Z,5.87
2018-09-04T00:56:19.416Z,6.00
2018-09-04T00:58:48.525Z,6.30
2018-09-04T01:01:17.836Z,7.20
2018-09-04T01:03:46.977Z,6.20
2018-09-04T01:06:16.400Z,6.37
2018-09-04T01:08:46.092Z,6.27
2018-09-04T01:11:16.034Z,7.33
2018-09-04T01:13:46.323Z,7.13
2018-09-04T01:16:15.953Z,5.37
2018-09-04T01:18:45.145Z,5.33
2018-09-04T01:21:14.353Z,6.47
2018-09-04T01:23:43.064Z,4.97
2018-09-04T01:26:12.180Z,5.83
2018-09-04T01:28:41.350Z,5.90
2018-09-04T01:31:10.784Z,5.43
2018-09-04T01:33:39.544Z,6.03
2018-09-04T01:36:08.604Z,6.73
2018-09-04T01:38:38.106Z,5.70
2018-09-04T01:41:07.355Z,4.43
2018-09-04T01:43:36.688Z,5.23
2018-09-04T01:46:05.464Z,6.37
2018-09-04T01:48:34.491Z,5.20
2018-09-04T01:51:03.620Z,5.20
2018-09-04T01:53:32.853Z,5.33
2018-09-04T01:56:02.160Z,6.03
2018-09-04T01:58:31.156Z,9.40
2018-09-04T02:01:00.379Z,5.50
2018-09-04T02:03:29.067Z,5.47
2018-09-04T02:05:57.948Z,5.93
2018-09-04T02:08:26.900Z,4.50
2018-09-04T02:10:56.072Z,4.20
2018-09-04T02:13:24.649Z,4.67
2018-09-04T02:15:53.870Z,5.37
2018-09-04T02:18:23.272Z,4.77
2018-09-04T02:20:52.744Z,6.20
2018-09-04T02:23:21.877Z,8.27
2018-09-04T02:25:50.696Z,4.57
2018-09-04T02:28:19.650Z,6.23
2018-09-04T02:30:49.400Z,4.97
2018-09-04T02:33:18.579Z,4.77
2018-09-04T02:35:47.471Z,8.73
2018-09-04T02:38:16.248Z,5.70
2018-09-04T02:40:45.058Z,6.73
2018-09-04T02:43:13.902Z,4.57
2018-09-04T02:45:43.336Z,6.27
2018-09-04T02:48:12.560Z,4.70
2018-09-04T02:50:41.288Z,6.53
2018-09-04T02:53:10.332Z,4.90
2018-09-04T02:55:39.264Z,4.33
2018-09-04T02:58:08.556Z,6.00
2018-09-04T03:00:36.862Z,5.90
2018-09-04T03:03:06.117Z,5.20
2018-09-04T03:05:34.751Z,6.90
2018-09-04T03:08:03.714Z,4.83
2018-09-04T03:10:33.215Z,5.07
2018-09-04T03:13:02.715Z,6.60
2018-09-04T03:15:31.823Z,4.30
2018-09-04T03:18:01.054Z,4.97
2018-09-04T03:20:30.352Z,5.30
2018-09-04T03:22:59.521Z,5.10
2018-09-04T03:25:28.535Z,6.73
2018-09-04T03:27:57.238Z,4.70
2018-09-04T03:30:26.567Z,4.97
2018-09-04T03:32:55.715Z,4.97
2018-09-04T03:35:24.946Z,5.73
2018-09-04T03:37:54.249Z,6.43
2018-09-04T03:40:23.848Z,5.53
2018-09-04T03:42:53.889Z,4.40
2018-09-04T03:45:22.855Z,5.27
2018-09-04T03:47:51.678Z,5.23
2018-09-04T03:50:20.588Z,6.30
2018-09-04T03:52:49.860Z,6.03
2018-09-04T03:55:19.352Z,4.70
2018-09-04T03:57:48.560Z,5.20
2018-09-04T04:00:18.136Z,6.00
2018-09-04T04:02:46.888Z,6.33
2018-09-04T04:05:16.472Z,5.93
2018-09-04T04:07:45.207Z,7.27
2018-09-04T04:10:14.390Z,11.23
2018-09-04T04:12:43.360Z,5.07
2018-09-04T04:15:12.497Z,4.70
2018-09-04T04:17:41.727Z,8.10
2018-09-04T04:20:10.847Z,5.80
2018-09-04T04:22:39.477Z,5.80
2018-09-04T04:25:08.800Z,5.90
2018-09-04T04:27:37.983Z,6.87
2018-09-04T04:30:07.563Z,6.77
2018-09-04T04:32:36.525Z,6.03
2018-09-04T04:35:05.976Z,5.47
2018-09-04T04:37:34.872Z,6.33
2018-09-04T04:40:03.917Z,6.70
2018-09-04T04:42:32.891Z,9.77
2018-09-04T04:45:02.833Z,5.33
2018-09-04T04:47:37.751Z,4.63
2018-09-04T04:50:06.839Z,5.50
2018-09-04T04:52:35.408Z,5.10
2018-09-04T04:55:04.376Z,8.93
2018-09-04T04:57:33.707Z,6.33
2018-09-04T05:00:02.927Z,6.53
2018-09-04T05:02:32.272Z,8.33
2018-09-04T05:05:01.314Z,5.40
2018-09-04T05:07:30.193Z,6.00
2018-09-04T05:10:01.114Z,6.30
2018-09-04T05:12:30.146Z,6.10
2018-09-04T05:14:59.515Z,6.37
2018-09-04T05:17:29.456Z,6.07
2018-09-04T05:19:57.996Z,7.07
2018-09-04T05:22:26.755Z,7.57
2018-09-04T05:24:55.520Z,4.97
2018-09-04T05:27:24.852Z,7.47
2018-09-04T05:29:53.974Z,5.87
2018-09-04T05:32:28.786Z,6.83
2018-09-04T05:34:57.220Z,6.30
2018-09-04T05:37:26.368Z,5.80
2018-09-04T05:39:55.360Z,5.87
2018-09-04T05:42:29.541Z,6.97
2018-09-04T05:44:58.703Z,5.67
2018-09-04T05:47:31.318Z,9.23
2018-09-04T05:50:00.259Z,8.67
2018-09-04T05:52:28.844Z,8.10
2018-09-04T05:54:57.906Z,10.03
2018-09-04T05:57:27.610Z,6.23
2018-09-04T05:59:57.508Z,5.80
2018-09-04T06:02:26.290Z,9.13
2018-09-04T06:04:54.911Z,7.07
2018-09-04T06:07:23.805Z,8.70
2018-09-04T06:09:52.696Z,6.30
2018-09-04T06:12:21.604Z,5.47
2018-09-04T06:14:50.520Z,8.57
2018-09-04T06:17:19.460Z,6.90
2018-09-04T06:19:48.444Z,7.80
2018-09-04T06:22:17.538Z,8.97
2018-09-04T06:24:46.455Z,9.67
2018-09-04T06:27:15.313Z,9.13
2018-09-04T06:29:44.211Z,8.87
2018-09-04T06:32:13.347Z,6.70
2018-09-04T06:34:42.575Z,6.97
2018-09-04T06:37:12.196Z,7.57
2018-09-04T06:39:42.561Z,7.00
2018-09-04T06:42:11.876Z,7.57
2018-09-04T06:44:41.991Z,7.77
2018-09-04T06:47:10.911Z,4.03
2018-09-04T06:49:39.362Z,6.13
2018-09-04T06:52:08.231Z,4.27
2018-09-04T06:54:37.316Z,3.23
2018-09-04T06:57:06.083Z,3.67
2018-09-04T06:59:35.275Z,5.27
2018-09-04T07:02:04.359Z,5.47
2018-09-04T07:04:33.121Z,3.57
2018-09-04T07:07:02.384Z,3.70
2018-09-04T07:09:31.628Z,4.27
2018-09-04T07:12:01.052Z,4.90
2018-09-04T07:14:30.191Z,4.10
2018-09-04T07:16:59.197Z,6.23
2018-09-04T07:19:28.335Z,4.77
2018-09-04T07:21:58.204Z,4.43
2018-09-04T07:24:27.040Z,4.13
2018-09-04T07:26:55.944Z,4.97
2018-09-04T07:29:25.806Z,4.10
2018-09-04T07:31:54.669Z,4.43
2018-09-04T07:34:23.743Z,3.80
2018-09-04T07:36:52.432Z,5.37
2018-09-04T07:39:21.607Z,5.87
2018-09-04T07:41:50.708Z,3.80
2018-09-04T07:44:20.043Z,4.53
2018-09-04T07:46:49.059Z,6.30
2018-09-04T07:49:17.937Z,4.13
2018-09-04T07:51:47.159Z,5.53
2018-09-04T07:54:15.920Z,4.93
2018-09-04T07:56:44.881Z,10.20
2018-09-04T07:59:14.018Z,12.87
2018-09-04T08:01:43.147Z,4.67
2018-09-04T08:04:12.240Z,4.60
2018-09-04T08:06:40.870Z,5.67
2018-09-04T08:09:10.070Z,4.90
2018-09-04T08:11:39.348Z,5.60
2018-09-04T08:14:08.340Z,3.97
2018-09-04T08:16:37.783Z,5.17
2018-09-04T08:19:06.612Z,4.30
2018-09-04T08:21:36.398Z,3.97
2018-09-04T08:24:06.750Z,3.50
2018-09-04T08:26:35.833Z,3.10
2018-09-04T08:29:04.881Z,4.43
2018-09-04T08:31:34.256Z,5.60
2018-09-04T08:34:03.090Z,4.10
2018-09-04T08:36:31.674Z,3.13
2018-09-04T08:39:00.708Z,4.60
2018-09-04T08:41:30.357Z,2.83
2018-09-04T08:43:59.340Z,6.30
2018-09-04T08:46:28.024Z,3.03
2018-09-04T08:48:56.452Z,4.30
2018-09-04T08:51:25.764Z,3.97
2018-09-04T08:53:54.564Z,4.70
2018-09-04T08:56:23.589Z,5.23
2018-09-04T08:58:52.920Z,5.33
2018-09-04T09:01:21.636Z,3.67
2018-09-04T09:03:50.790Z,3.63
2018-09-04T09:06:19.955Z,4.40
2018-09-04T09:08:48.796Z,4.17
2018-09-04T09:11:17.728Z,4.13
2018-09-04T09:13:46.912Z,4.90
2018-09-04T09:16:15.824Z,3.90
2018-09-04T09:18:45.252Z,8.50
2018-09-04T09:21:14.151Z,6.07
2018-09-04T09:23:43.148Z,6.30
2018-09-04T09:26:12.351Z,5.70
2018-09-04T09:28:41.306Z,12.73
2018-09-04T09:31:10.251Z,4.53
2018-09-04T09:33:38.873Z,5.83
2018-09-04T09:36:07.792Z,6.13
2018-09-04T09:38:36.955Z,7.30
2018-09-04T09:41:05.956Z,9.63
2018-09-04T09:43:34.864Z,6.60
2018-09-04T09:46:03.920Z,4.83
2018-09-04T09:48:38.208Z,6.90
2018-09-04T09:51:07.031Z,6.10
2018-09-04T09:53:37.167Z,8.03
2018-09-04T09:56:06.628Z,10.07
2018-09-04T09:58:35.709Z,8.43
2018-09-04T10:01:22.044Z,9.80
2018-09-04T10:03:56.589Z,4.00
2018-09-04T10:06:25.935Z,6.10
2018-09-04T10:08:54.980Z,6.00
2018-09-04T10:11:24.072Z,5.60
2018-09-04T10:13:53.751Z,4.40
2018-09-04T10:16:22.681Z,6.90
2018-09-04T10:18:51.312Z,4.73
2018-09-04T10:21:20.292Z,7.43
2018-09-04T10:23:48.852Z,4.80
2018-09-04T10:26:17.838Z,3.95
2018-09-04T10:28:46.641Z,4.35
2018-09-04T10:31:15.184Z,6.80
2018-09-04T10:33:44.243Z,5.25
2018-09-04T10:36:13.506Z,4.90
2018-09-04T10:38:42.559Z,3.67
2018-09-04T10:41:13.574Z,6.83
2018-09-04T10:43:42.202Z,6.47
2018-09-04T10:46:12.504Z,5.22
2018-09-04T10:48:41.622Z,5.92
2018-09-04T10:51:10.564Z,8.28
2018-09-04T10:53:39.592Z,7.62
2018-09-04T10:56:08.588Z,6.70
2018-09-04T10:58:38.405Z,3.92
2018-09-04T11:01:07.364Z,4.62
2018-09-04T11:03:37.065Z,3.92
2018-09-04T11:06:05.943Z,4.83
2018-09-04T11:08:34.928Z,8.08
2018-09-04T11:11:03.248Z,5.50
2018-09-04T11:13:32.184Z,5.00
2018-09-04T11:16:01.419Z,3.47
2018-09-04T11:18:30.327Z,4.45
2018-09-04T11:20:59.252Z,5.47
2018-09-04T11:23:27.616Z,3.35
2018-09-04T11:25:56.164Z,3.45
2018-09-04T11:28:25.310Z,3.08
2018-09-04T11:30:54.468Z,3.47
2018-09-04T11:33:22.864Z,3.60
2018-09-04T11:35:51.868Z,5.20
2018-09-04T11:38:20.148Z,5.62
2018-09-04T11:40:48.494Z,5.80
2018-09-04T11:43:17.343Z,5.58
2018-09-04T11:45:46.140Z,4.17
2018-09-04T11:48:17.602Z,3.90
2018-09-04T11:50:46.949Z,3.70
2018-09-04T11:53:16.107Z,3.77
2018-09-04T11:55:45.268Z,3.98
2018-09-04T11:58:13.661Z,3.58
2018-09-04T12:00:44.456Z,3.65
2018-09-04T12:03:14.561Z,4.00
2018-09-04T12:05:43.772Z,4.10
2018-09-04T12:08:12.292Z,4.65
2018-09-04T12:10:40.996Z,3.70
2018-09-04T12:13:09.903Z,4.58
2018-09-04T12:15:39.689Z,4.05
2018-09-04T12:18:09.201Z,3.92
2018-09-04T12:20:39.804Z,3.98
2018-09-04T12:23:08.573Z,4.35
2018-09-04T12:25:37.989Z,4.60
2018-09-04T12:28:06.603Z,3.25
2018-09-04T12:30:36.652Z,3.92
2018-09-04T12:33:05.452Z,3.80
2018-09-04T12:35:34.467Z,3.98
2018-09-04T12:38:03.536Z,4.90
2018-09-04T12:40:33.264Z,3.22
2018-09-04T12:43:02.959Z,4.97
2018-09-04T12:45:37.136Z,3.75
2018-09-04T12:48:06.321Z,8.70
2018-09-04T12:50:35.633Z,3.15
2018-09-04T12:53:04.507Z,5.28
2018-09-04T12:55:33.594Z,3.17
2018-09-04T12:58:02.369Z,3.20
2018-09-04T13:00:31.384Z,3.50
2018-09-04T13:03:00.588Z,3.12
2018-09-04T13:05:29.708Z,3.15
2018-09-04T13:07:58.903Z,4.22
2018-09-04T13:10:28.231Z,3.40
2018-09-04T13:12:57.884Z,3.62
2018-09-04T13:15:27.123Z,3.87
2018-09-04T13:17:56.245Z,3.12
2018-09-04T13:20:24.920Z,3.40
2018-09-04T13:22:54.111Z,5.42
2018-09-04T13:25:23.344Z,5.40
2018-09-04T13:27:52.390Z,4.37
2018-09-04T13:30:21.239Z,3.02
2018-09-04T13:32:50.074Z,3.90
2018-09-04T13:35:18.891Z,4.72
2018-09-04T13:37:47.835Z,3.22
2018-09-04T13:40:16.932Z,3.67
2018-09-04T13:42:45.651Z,3.65
2018-09-04T13:45:14.356Z,2.90
2018-09-04T13:47:43.516Z,4.15
2018-09-04T13:50:12.952Z,3.15
2018-09-04T13:52:41.844Z,3.55
2018-09-04T13:55:11.121Z,3.95
2018-09-04T13:57:40.184Z,8.45
2018-09-04T14:00:11.056Z,3.65
2018-09-04T14:02:40.062Z,3.00
2018-09-04T14:05:08.793Z,3.12
2018-09-04T14:07:37.252Z,3.77
2018-09-04T14:10:06.112Z,3.50
2018-09-04T14:12:34.896Z,4.83
2018-09-04T14:15:04.041Z,3.47
2018-09-04T14:17:33.056Z,3.30
2018-09-04T14:20:01.892Z,4.35
2018-09-04T14:22:30.551Z,4.75
2018-09-04T14:24:58.862Z,5.65
2018-09-04T14:27:28.034Z,3.25
2018-09-04T14:30:15.538Z,3.20
2018-09-04T14:32:26.263Z,3.10
2018-09-04T14:34:55.052Z,7.17
2018-09-04T14:37:24.308Z,4.35
2018-09-04T14:39:55.591Z,5.95
2018-09-04T14:42:22.624Z,5.20
2018-09-04T14:44:51.382Z,3.77
2018-09-04T14:47:20.414Z,5.25
2018-09-04T14:49:50.395Z,3.50
2018-09-04T14:52:19.316Z,4.80
2018-09-04T14:54:48.323Z,3.40
2018-09-04T14:57:18.104Z,3.25
2018-09-04T14:59:47.606Z,4.47
2018-09-04T15:02:16.377Z,3.80
2018-09-04T15:04:45.558Z,4.22
2018-09-04T15:07:14.146Z,4.00
2018-09-04T15:09:43.433Z,4.15
2018-09-04T15:12:12.377Z,4.97
2018-09-04T15:14:41.843Z,3.87
2018-09-04T15:17:11.007Z,5.85
2018-09-04T15:19:40.247Z,4.30
2018-09-04T15:22:09.025Z,3.45
2018-09-04T15:24:37.872Z,5.65
2018-09-04T15:27:06.925Z,3.58
2018-09-04T15:29:35.664Z,4.20
2018-09-04T15:32:04.449Z,4.92
2018-09-04T15:34:32.928Z,4.83
2018-09-04T15:37:01.325Z,3.83
2018-09-04T15:39:30.851Z,4.08
2018-09-04T15:41:59.521Z,3.50
2018-09-04T15:44:28.776Z,3.92
2018-09-04T15:46:57.811Z,5.30
2018-09-04T15:49:32.179Z,4.80
2018-09-04T15:52:01.401Z,4.65
2018-09-04T15:54:30.259Z,4.08
2018-09-04T15:56:59.011Z,4.20
2018-09-04T15:59:27.607Z,3.70
2018-09-04T16:01:56.244Z,4.40
2018-09-04T16:04:24.772Z,6.50
2018-09-04T16:06:53.639Z,3.85
2018-09-04T16:09:22.540Z,5.25
2018-09-04T16:11:51.179Z,5.40
2018-09-04T16:14:20.129Z,3.70
2018-09-04T16:16:49.095Z,6.80
2018-09-04T16:19:17.870Z,4.00
2018-09-04T16:21:46.556Z,5.08
2018-09-04T16:24:15.696Z,4.33
2018-09-04T16:26:43.999Z,3.70
2018-09-04T16:29:13.284Z,4.78
2018-09-04T16:31:42.657Z,3.47
2018-09-04T16:34:12.527Z,5.40
2018-09-04T16:36:41.411Z,6.03
2018-09-04T16:39:10.124Z,7.95
2018-09-04T16:41:39.192Z,5.75
2018-09-04T16:44:09.008Z,3.65
2018-09-04T16:46:38.933Z,3.60
2018-09-04T16:49:07.954Z,4.67
2018-09-04T16:51:37.096Z,5.58
2018-09-04T16:54:06.128Z,3.90
2018-09-04T16:56:35.404Z,4.30
2018-09-04T16:59:04.770Z,3.85
2018-09-04T17:01:33.616Z,5.70
2018-09-04T17:04:02.554Z,4.22
2018-09-04T17:06:32.184Z,4.33
2018-09-04T17:09:00.858Z,4.80
2018-09-04T17:11:30.111Z,4.50
2018-09-04T17:13:58.768Z,4.50
2018-09-04T17:16:28.613Z,4.70
2018-09-04T17:18:57.977Z,4.50
2018-09-04T17:21:27.436Z,6.15
2018-09-04T17:23:56.396Z,5.58
2018-09-04T17:26:25.082Z,7.72
2018-09-04T17:28:54.245Z,5.22
2018-09-04T17:31:23.213Z,4.03
2018-09-04T17:33:52.775Z,4.30
2018-09-04T17:36:22.113Z,4.17
2018-09-04T17:38:50.798Z,4.28
2018-09-04T17:41:19.700Z,4.17
2018-09-04T17:43:48.664Z,4.67
2018-09-04T17:46:17.842Z,6.12
2018-09-04T17:48:46.502Z,4.10
2018-09-04T17:51:15.640Z,5.55
2018-09-04T17:53:44.651Z,4.90
2018-09-04T17:56:17.020Z,4.28
2018-09-04T17:58:46.250Z,4.75
2018-09-04T18:01:15.716Z,4.20
2018-09-04T18:03:45.251Z,4.90
2018-09-04T18:06:13.992Z,4.55
2018-09-04T18:08:43.321Z,5.95
2018-09-04T18:11:12.965Z,6.37
2018-09-04T18:13:42.569Z,7.45
2018-09-04T18:16:12.237Z,4.58
2018-09-04T18:18:41.711Z,4.87
2018-09-04T18:21:10.683Z,5.37
2018-09-04T18:23:39.674Z,7.00
2018-09-04T18:26:08.684Z,5.05
2018-09-04T18:28:38.389Z,5.57
2018-09-04T18:31:07.136Z,5.67
2018-09-04T18:33:36.383Z,5.23
2018-09-04T18:36:05.319Z,5.70
2018-09-04T18:38:34.186Z,5.95
2018-09-04T18:41:03.217Z,5.05
2018-09-04T18:43:32.933Z,6.67
2018-09-04T18:46:02.169Z,5.90
2018-09-04T18:48:31.940Z,5.17
2018-09-04T18:51:01.412Z,9.17
2018-09-04T18:53:30.614Z,5.50
2018-09-04T18:56:00.021Z,6.53
2018-09-04T18:58:29.270Z,8.20
2018-09-04T19:00:59.066Z,5.77
2018-09-04T19:03:28.505Z,6.13
2018-09-04T19:05:57.948Z,5.97
2018-09-04T19:08:27.509Z,7.10
2018-09-04T19:10:56.900Z,6.30
2018-09-04T19:13:26.438Z,6.13
2018-09-04T19:15:56.233Z,6.73
2018-09-04T19:18:25.623Z,7.50
2018-09-04T19:20:54.671Z,6.30
2018-09-04T19:23:24.574Z,8.17
2018-09-04T19:25:53.747Z,7.27
2018-09-04T19:28:23.242Z,8.57
2018-09-04T19:30:52.812Z,6.63
2018-09-04T19:33:22.568Z,6.90
2018-09-04T19:35:52.781Z,7.83
2018-09-04T19:38:22.003Z,6.53
2018-09-04T19:40:51.190Z,6.83
2018-09-04T19:43:20.746Z,6.07
2018-09-04T19:45:50.778Z,6.13
2018-09-04T19:48:19.662Z,6.70
2018-09-04T19:50:48.782Z,6.93
2018-09-04T19:53:17.503Z,6.80
2018-09-04T19:55:47.117Z,6.03
2018-09-04T19:58:16.777Z,6.70
2018-09-04T20:00:45.939Z,6.83
2018-09-04T20:03:14.949Z,6.87
2018-09-04T20:05:43.862Z,7.17
2018-09-04T20:08:12.836Z,6.57
2018-09-04T20:10:42.498Z,7.33
2018-09-04T20:13:12.331Z,6.30
2018-09-04T20:15:42.223Z,6.37
2018-09-04T20:18:11.850Z,6.37
2018-09-04T20:20:40.953Z,6.07
2018-09-04T20:23:10.081Z,6.20
2018-09-04T20:25:39.161Z,7.20
2018-09-04T20:28:07.615Z,6.30
2018-09-04T20:30:37.048Z,6.67
2018-09-04T20:33:05.701Z,6.67
2018-09-04T20:35:34.828Z,8.53
2018-09-04T20:38:03.909Z,6.20
2018-09-04T20:40:32.845Z,6.33
2018-09-04T20:43:01.814Z,6.83
2018-09-04T20:45:30.539Z,7.97
2018-09-04T20:47:59.422Z,7.57
2018-09-04T20:50:28.832Z,7.93
2018-09-04T20:52:58.132Z,8.10
2018-09-04T20:55:26.889Z,7.20
2018-09-04T20:58:00.809Z,6.93
2018-09-04T21:00:35.084Z,7.70
2018-09-04T21:03:09.342Z,7.63
2018-09-04T21:05:43.061Z,9.10
2018-09-04T21:08:22.944Z,8.63
2018-09-04T21:10:52.807Z,8.87
2018-09-04T21:13:21.771Z,8.40
2018-09-04T21:15:50.679Z,8.37
2018-09-04T21:18:19.747Z,8.40
2018-09-04T21:20:48.629Z,7.20
2018-09-04T21:23:17.685Z,7.63
2018-09-04T21:25:46.722Z,8.50
2018-09-04T21:28:15.968Z,9.00
2018-09-04T21:30:44.543Z,7.17
2018-09-04T21:33:13.355Z,7.23
2018-09-04T21:35:42.152Z,6.97
2018-09-04T21:38:11.005Z,7.50
2018-09-04T21:40:40.264Z,8.47
2018-09-04T21:43:09.052Z,7.50
2018-09-04T21:45:37.943Z,8.60
2018-09-04T21:48:06.560Z,10.33
2018-09-04T21:50:35.369Z,9.17
2018-09-04T21:53:03.952Z,10.70
2018-09-04T21:55:33.009Z,7.93
2018-09-04T21:58:01.583Z,8.40
2018-09-04T22:00:30.436Z,7.10
2018-09-04T22:02:58.987Z,8.03
2018-09-04T22:05:27.839Z,7.77
2018-09-04T22:07:57.152Z,8.20
2018-09-04T22:10:26.654Z,7.50
2018-09-04T22:12:55.587Z,7.80
2018-09-04T22:15:24.523Z,9.20
2018-09-04T22:17:53.455Z,9.90
2018-09-04T22:20:22.120Z,7.80
2018-09-04T22:22:50.952Z,9.87
2018-09-04T22:25:19.723Z,9.47
2018-09-04T22:27:49.314Z,6.93
2018-09-04T22:30:18.552Z,7.27
2018-09-04T22:32:47.180Z,8.17
2018-09-04T22:35:16.067Z,8.43
2018-09-04T22:37:45.236Z,10.10
2018-09-04T22:40:14.044Z,8.23
2018-09-04T22:42:42.771Z,7.43
2018-09-04T22:45:11.440Z,7.40
2018-09-04T22:47:41.272Z,7.03
2018-09-04T22:50:15.384Z,6.97
2018-09-04T22:52:44.400Z,7.63
2018-09-04T22:55:13.848Z,8.17
2018-09-04T22:57:43.079Z,7.43
2018-09-04T23:00:12.915Z,7.63
2018-09-04T23:02:42.181Z,8.70
2018-09-04T23:05:15.299Z,6.80
2018-09-04T23:07:44.084Z,7.20
2018-09-04T23:10:12.677Z,6.67
2018-09-04T23:12:41.600Z,7.17
2018-09-04T23:15:10.497Z,7.77
2018-09-04T23:17:39.628Z,7.40
2018-09-04T23:20:08.914Z,7.40
2018-09-04T23:22:37.879Z,7.43
2018-09-04T23:25:07.099Z,8.40
2018-09-04T23:27:36.198Z,7.13
2018-09-04T23:30:06.109Z,7.03
2018-09-04T23:32:35.164Z,12.17
2018-09-04T23:35:04.822Z,8.13
2018-09-04T23:37:33.601Z,8.77
2018-09-04T23:40:01.992Z,10.13
2018-09-04T23:42:32.832Z,11.07
2018-09-04T23:45:02.996Z,11.73
2018-09-04T23:47:31.919Z,10.00
2018-09-04T23:50:00.953Z,10.43
2018-09-04T23:52:29.798Z,9.20
2018-09-04T23:54:59.135Z,8.33
2018-09-04T23:57:28.160Z,8.83
2018-09-04T23:59:56.950Z,8.43
